<?xml version="1.0" encoding="UTF-8" standalone="no" ?>
<gpx xmlns="http://www.topografix.com/GPX/1/1" xmlns:xsi="http://www.w3.org/2001/XMLSchema-instance" xsi:schemaLocation="http://www.topografix.com/GPX/1/1 http://www.topografix.com/GPX/1/1/gpx.xsd" version="1.1" creator="VisuGPX - https://www.visugpx.com">
  <metadata>
    <name>OMS CHENOVE Marche du vendredi 17 février 2012</name>
    <desc><![CDATA[De l'Observatoire à Velars]]></desc>
  </metadata>
  <trk>
    <name><![CDATA[OMS CHENOVE Marche du vendredi 17 février 2012_1]]></name>
    <trkseg>
      <trkpt lat="47.30958" lon="4.94032">
        <ele>441.659</ele>
        <time>2012-02-17T09:26:21Z</time>
      </trkpt>
      <trkpt lat="47.30958" lon="4.9403">
        <ele>441.331</ele>
        <time>2012-02-17T09:26:32Z</time>
      </trkpt>
      <trkpt lat="47.30958" lon="4.94035">
        <ele>440.452</ele>
        <time>2012-02-17T09:26:43Z</time>
      </trkpt>
      <trkpt lat="47.30958" lon="4.94035">
        <ele>440.452</ele>
        <time>2012-02-17T09:26:54Z</time>
      </trkpt>
      <trkpt lat="47.30957" lon="4.94035">
        <ele>439.022</ele>
        <time>2012-02-17T09:27:05Z</time>
      </trkpt>
      <trkpt lat="47.30957" lon="4.94035">
        <ele>438.44</ele>
        <time>2012-02-17T09:27:16Z</time>
      </trkpt>
      <trkpt lat="47.30957" lon="4.94037">
        <ele>438.459</ele>
        <time>2012-02-17T09:27:27Z</time>
      </trkpt>
      <trkpt lat="47.30963" lon="4.94038">
        <ele>438.899</ele>
        <time>2012-02-17T09:27:38Z</time>
      </trkpt>
      <trkpt lat="47.30967" lon="4.9404">
        <ele>437.903</ele>
        <time>2012-02-17T09:27:49Z</time>
      </trkpt>
      <trkpt lat="47.3096" lon="4.94033">
        <ele>437.355</ele>
        <time>2012-02-17T09:28:00Z</time>
      </trkpt>
      <trkpt lat="47.30952" lon="4.94027">
        <ele>438.906</ele>
        <time>2012-02-17T09:28:11Z</time>
      </trkpt>
      <trkpt lat="47.30952" lon="4.94012">
        <ele>438.557</ele>
        <time>2012-02-17T09:28:22Z</time>
      </trkpt>
      <trkpt lat="47.30953" lon="4.93992">
        <ele>437.431</ele>
        <time>2012-02-17T09:28:33Z</time>
      </trkpt>
      <trkpt lat="47.30955" lon="4.9397">
        <ele>436.568</ele>
        <time>2012-02-17T09:28:44Z</time>
      </trkpt>
      <trkpt lat="47.30955" lon="4.93948">
        <ele>438.105</ele>
        <time>2012-02-17T09:28:55Z</time>
      </trkpt>
      <trkpt lat="47.30957" lon="4.93925">
        <ele>437.435</ele>
        <time>2012-02-17T09:29:06Z</time>
      </trkpt>
      <trkpt lat="47.30957" lon="4.93905">
        <ele>437.417</ele>
        <time>2012-02-17T09:29:17Z</time>
      </trkpt>
      <trkpt lat="47.30958" lon="4.93883">
        <ele>437.467</ele>
        <time>2012-02-17T09:29:28Z</time>
      </trkpt>
      <trkpt lat="47.30957" lon="4.93862">
        <ele>437.788</ele>
        <time>2012-02-17T09:29:39Z</time>
      </trkpt>
      <trkpt lat="47.30953" lon="4.9384">
        <ele>436.932</ele>
        <time>2012-02-17T09:29:50Z</time>
      </trkpt>
      <trkpt lat="47.30957" lon="4.93818">
        <ele>437.353</ele>
        <time>2012-02-17T09:30:01Z</time>
      </trkpt>
      <trkpt lat="47.30962" lon="4.93797">
        <ele>437.412</ele>
        <time>2012-02-17T09:30:12Z</time>
      </trkpt>
      <trkpt lat="47.30965" lon="4.93773">
        <ele>437.02</ele>
        <time>2012-02-17T09:30:23Z</time>
      </trkpt>
      <trkpt lat="47.30967" lon="4.93752">
        <ele>437.512</ele>
        <time>2012-02-17T09:30:34Z</time>
      </trkpt>
      <trkpt lat="47.30968" lon="4.93728">
        <ele>436.632</ele>
        <time>2012-02-17T09:30:45Z</time>
      </trkpt>
      <trkpt lat="47.30968" lon="4.93705">
        <ele>436.835</ele>
        <time>2012-02-17T09:30:56Z</time>
      </trkpt>
      <trkpt lat="47.30968" lon="4.93682">
        <ele>435.642</ele>
        <time>2012-02-17T09:31:07Z</time>
      </trkpt>
      <trkpt lat="47.30967" lon="4.93658">
        <ele>436.017</ele>
        <time>2012-02-17T09:31:18Z</time>
      </trkpt>
      <trkpt lat="47.30967" lon="4.93635">
        <ele>435.16</ele>
        <time>2012-02-17T09:31:29Z</time>
      </trkpt>
      <trkpt lat="47.30967" lon="4.93612">
        <ele>435.061</ele>
        <time>2012-02-17T09:31:40Z</time>
      </trkpt>
      <trkpt lat="47.30965" lon="4.93587">
        <ele>434.55</ele>
        <time>2012-02-17T09:31:51Z</time>
      </trkpt>
      <trkpt lat="47.30965" lon="4.93562">
        <ele>434.183</ele>
        <time>2012-02-17T09:32:02Z</time>
      </trkpt>
      <trkpt lat="47.30965" lon="4.9354">
        <ele>433.315</ele>
        <time>2012-02-17T09:32:13Z</time>
      </trkpt>
      <trkpt lat="47.30963" lon="4.93515">
        <ele>433.259</ele>
        <time>2012-02-17T09:32:24Z</time>
      </trkpt>
      <trkpt lat="47.3096" lon="4.93492">
        <ele>432.559</ele>
        <time>2012-02-17T09:32:35Z</time>
      </trkpt>
      <trkpt lat="47.3096" lon="4.93468">
        <ele>432.816</ele>
        <time>2012-02-17T09:32:46Z</time>
      </trkpt>
      <trkpt lat="47.30957" lon="4.93445">
        <ele>432.529</ele>
        <time>2012-02-17T09:32:57Z</time>
      </trkpt>
      <trkpt lat="47.30955" lon="4.93422">
        <ele>431.575</ele>
        <time>2012-02-17T09:33:08Z</time>
      </trkpt>
      <trkpt lat="47.30953" lon="4.93398">
        <ele>432.195</ele>
        <time>2012-02-17T09:33:19Z</time>
      </trkpt>
      <trkpt lat="47.3095" lon="4.93373">
        <ele>431.798</ele>
        <time>2012-02-17T09:33:30Z</time>
      </trkpt>
      <trkpt lat="47.3095" lon="4.93348">
        <ele>431.429</ele>
        <time>2012-02-17T09:33:41Z</time>
      </trkpt>
      <trkpt lat="47.3095" lon="4.93325">
        <ele>430.904</ele>
        <time>2012-02-17T09:33:52Z</time>
      </trkpt>
      <trkpt lat="47.30953" lon="4.93305">
        <ele>431.189</ele>
        <time>2012-02-17T09:34:03Z</time>
      </trkpt>
      <trkpt lat="47.30967" lon="4.93288">
        <ele>430.747</ele>
        <time>2012-02-17T09:34:14Z</time>
      </trkpt>
      <trkpt lat="47.3098" lon="4.93277">
        <ele>430.086</ele>
        <time>2012-02-17T09:34:25Z</time>
      </trkpt>
      <trkpt lat="47.30995" lon="4.93278">
        <ele>430.353</ele>
        <time>2012-02-17T09:34:36Z</time>
      </trkpt>
      <trkpt lat="47.31008" lon="4.93282">
        <ele>431.053</ele>
        <time>2012-02-17T09:34:47Z</time>
      </trkpt>
      <trkpt lat="47.31025" lon="4.93278">
        <ele>431.704</ele>
        <time>2012-02-17T09:34:58Z</time>
      </trkpt>
      <trkpt lat="47.31038" lon="4.93278">
        <ele>433.322</ele>
        <time>2012-02-17T09:35:09Z</time>
      </trkpt>
      <trkpt lat="47.31045" lon="4.93283">
        <ele>433.393</ele>
        <time>2012-02-17T09:35:20Z</time>
      </trkpt>
      <trkpt lat="47.31057" lon="4.93287">
        <ele>434.04</ele>
        <time>2012-02-17T09:35:31Z</time>
      </trkpt>
      <trkpt lat="47.31063" lon="4.93295">
        <ele>434.579</ele>
        <time>2012-02-17T09:35:42Z</time>
      </trkpt>
      <trkpt lat="47.31077" lon="4.93302">
        <ele>433.772</ele>
        <time>2012-02-17T09:35:53Z</time>
      </trkpt>
      <trkpt lat="47.31088" lon="4.93312">
        <ele>434.446</ele>
        <time>2012-02-17T09:36:04Z</time>
      </trkpt>
      <trkpt lat="47.311" lon="4.93302">
        <ele>435.651</ele>
        <time>2012-02-17T09:36:15Z</time>
      </trkpt>
      <trkpt lat="47.31112" lon="4.93293">
        <ele>437.121</ele>
        <time>2012-02-17T09:36:26Z</time>
      </trkpt>
      <trkpt lat="47.3112" lon="4.9328">
        <ele>435.468</ele>
        <time>2012-02-17T09:36:37Z</time>
      </trkpt>
      <trkpt lat="47.3113" lon="4.93267">
        <ele>432.491</ele>
        <time>2012-02-17T09:36:48Z</time>
      </trkpt>
      <trkpt lat="47.3115" lon="4.93248">
        <ele>430.954</ele>
        <time>2012-02-17T09:36:59Z</time>
      </trkpt>
      <trkpt lat="47.31163" lon="4.93242">
        <ele>429.275</ele>
        <time>2012-02-17T09:37:10Z</time>
      </trkpt>
      <trkpt lat="47.3117" lon="4.93262">
        <ele>426.792</ele>
        <time>2012-02-17T09:37:21Z</time>
      </trkpt>
      <trkpt lat="47.31178" lon="4.93283">
        <ele>426.443</ele>
        <time>2012-02-17T09:37:32Z</time>
      </trkpt>
      <trkpt lat="47.31183" lon="4.93303">
        <ele>426.496</ele>
        <time>2012-02-17T09:37:43Z</time>
      </trkpt>
      <trkpt lat="47.31188" lon="4.93327">
        <ele>426.807</ele>
        <time>2012-02-17T09:37:54Z</time>
      </trkpt>
      <trkpt lat="47.31193" lon="4.93352">
        <ele>426.388</ele>
        <time>2012-02-17T09:38:05Z</time>
      </trkpt>
      <trkpt lat="47.31198" lon="4.93375">
        <ele>425.091</ele>
        <time>2012-02-17T09:38:16Z</time>
      </trkpt>
      <trkpt lat="47.31207" lon="4.934">
        <ele>424.522</ele>
        <time>2012-02-17T09:38:27Z</time>
      </trkpt>
      <trkpt lat="47.31215" lon="4.93422">
        <ele>425.486</ele>
        <time>2012-02-17T09:38:38Z</time>
      </trkpt>
      <trkpt lat="47.31227" lon="4.9344">
        <ele>426.973</ele>
        <time>2012-02-17T09:38:49Z</time>
      </trkpt>
      <trkpt lat="47.31242" lon="4.93453">
        <ele>427.751</ele>
        <time>2012-02-17T09:39:00Z</time>
      </trkpt>
      <trkpt lat="47.31255" lon="4.93462">
        <ele>429.824</ele>
        <time>2012-02-17T09:39:11Z</time>
      </trkpt>
      <trkpt lat="47.3127" lon="4.9347">
        <ele>431.435</ele>
        <time>2012-02-17T09:39:22Z</time>
      </trkpt>
      <trkpt lat="47.31282" lon="4.93478">
        <ele>433.043</ele>
        <time>2012-02-17T09:39:33Z</time>
      </trkpt>
      <trkpt lat="47.31292" lon="4.93492">
        <ele>434.496</ele>
        <time>2012-02-17T09:39:44Z</time>
      </trkpt>
      <trkpt lat="47.31303" lon="4.93507">
        <ele>435.253</ele>
        <time>2012-02-17T09:39:55Z</time>
      </trkpt>
      <trkpt lat="47.31315" lon="4.93522">
        <ele>436.058</ele>
        <time>2012-02-17T09:40:06Z</time>
      </trkpt>
      <trkpt lat="47.3133" lon="4.93533">
        <ele>436.992</ele>
        <time>2012-02-17T09:40:17Z</time>
      </trkpt>
      <trkpt lat="47.31342" lon="4.93545">
        <ele>437.387</ele>
        <time>2012-02-17T09:40:28Z</time>
      </trkpt>
      <trkpt lat="47.31353" lon="4.93553">
        <ele>437.133</ele>
        <time>2012-02-17T09:40:39Z</time>
      </trkpt>
      <trkpt lat="47.31367" lon="4.93572">
        <ele>437.858</ele>
        <time>2012-02-17T09:40:50Z</time>
      </trkpt>
      <trkpt lat="47.31382" lon="4.93587">
        <ele>438.882</ele>
        <time>2012-02-17T09:41:01Z</time>
      </trkpt>
      <trkpt lat="47.31398" lon="4.93603">
        <ele>437.907</ele>
        <time>2012-02-17T09:41:12Z</time>
      </trkpt>
      <trkpt lat="47.31413" lon="4.93622">
        <ele>434.627</ele>
        <time>2012-02-17T09:41:23Z</time>
      </trkpt>
      <trkpt lat="47.31428" lon="4.93637">
        <ele>432.079</ele>
        <time>2012-02-17T09:41:34Z</time>
      </trkpt>
      <trkpt lat="47.3144" lon="4.93653">
        <ele>429.468</ele>
        <time>2012-02-17T09:41:45Z</time>
      </trkpt>
      <trkpt lat="47.31452" lon="4.93675">
        <ele>427.965</ele>
        <time>2012-02-17T09:41:56Z</time>
      </trkpt>
      <trkpt lat="47.31463" lon="4.93695">
        <ele>428.096</ele>
        <time>2012-02-17T09:42:07Z</time>
      </trkpt>
      <trkpt lat="47.31473" lon="4.93713">
        <ele>427.479</ele>
        <time>2012-02-17T09:42:18Z</time>
      </trkpt>
      <trkpt lat="47.31487" lon="4.93733">
        <ele>426.771</ele>
        <time>2012-02-17T09:42:29Z</time>
      </trkpt>
      <trkpt lat="47.31498" lon="4.9375">
        <ele>426.943</ele>
        <time>2012-02-17T09:42:40Z</time>
      </trkpt>
      <trkpt lat="47.31513" lon="4.93768">
        <ele>425.872</ele>
        <time>2012-02-17T09:42:51Z</time>
      </trkpt>
      <trkpt lat="47.31527" lon="4.93785">
        <ele>426.046</ele>
        <time>2012-02-17T09:43:02Z</time>
      </trkpt>
      <trkpt lat="47.31537" lon="4.938">
        <ele>424.962</ele>
        <time>2012-02-17T09:43:13Z</time>
      </trkpt>
      <trkpt lat="47.3155" lon="4.9382">
        <ele>423.566</ele>
        <time>2012-02-17T09:43:24Z</time>
      </trkpt>
      <trkpt lat="47.3156" lon="4.9384">
        <ele>423.244</ele>
        <time>2012-02-17T09:43:35Z</time>
      </trkpt>
      <trkpt lat="47.31567" lon="4.93855">
        <ele>423.451</ele>
        <time>2012-02-17T09:43:46Z</time>
      </trkpt>
      <trkpt lat="47.31572" lon="4.93867">
        <ele>424.577</ele>
        <time>2012-02-17T09:43:57Z</time>
      </trkpt>
      <trkpt lat="47.3158" lon="4.9388">
        <ele>425.705</ele>
        <time>2012-02-17T09:44:08Z</time>
      </trkpt>
      <trkpt lat="47.31588" lon="4.93892">
        <ele>426.444</ele>
        <time>2012-02-17T09:44:19Z</time>
      </trkpt>
      <trkpt lat="47.31598" lon="4.9391">
        <ele>425.861</ele>
        <time>2012-02-17T09:44:30Z</time>
      </trkpt>
      <trkpt lat="47.31608" lon="4.93925">
        <ele>426.246</ele>
        <time>2012-02-17T09:44:41Z</time>
      </trkpt>
      <trkpt lat="47.3161" lon="4.93932">
        <ele>426.093</ele>
        <time>2012-02-17T09:44:52Z</time>
      </trkpt>
      <trkpt lat="47.3161" lon="4.93932">
        <ele>425.698</ele>
        <time>2012-02-17T09:45:03Z</time>
      </trkpt>
      <trkpt lat="47.3161" lon="4.93932">
        <ele>425.533</ele>
        <time>2012-02-17T09:45:14Z</time>
      </trkpt>
      <trkpt lat="47.3161" lon="4.93932">
        <ele>425.533</ele>
        <time>2012-02-17T09:45:25Z</time>
      </trkpt>
      <trkpt lat="47.3161" lon="4.93932">
        <ele>425.167</ele>
        <time>2012-02-17T09:45:36Z</time>
      </trkpt>
      <trkpt lat="47.3161" lon="4.93933">
        <ele>424.581</ele>
        <time>2012-02-17T09:45:47Z</time>
      </trkpt>
      <trkpt lat="47.3161" lon="4.93938">
        <ele>424.316</ele>
        <time>2012-02-17T09:45:58Z</time>
      </trkpt>
      <trkpt lat="47.3161" lon="4.93943">
        <ele>423.99</ele>
        <time>2012-02-17T09:46:09Z</time>
      </trkpt>
      <trkpt lat="47.31612" lon="4.93945">
        <ele>423.594</ele>
        <time>2012-02-17T09:46:20Z</time>
      </trkpt>
      <trkpt lat="47.31613" lon="4.93948">
        <ele>423.388</ele>
        <time>2012-02-17T09:46:31Z</time>
      </trkpt>
      <trkpt lat="47.31617" lon="4.9395">
        <ele>421.738</ele>
        <time>2012-02-17T09:46:42Z</time>
      </trkpt>
      <trkpt lat="47.31618" lon="4.93952">
        <ele>422.403</ele>
        <time>2012-02-17T09:46:53Z</time>
      </trkpt>
      <trkpt lat="47.31622" lon="4.93955">
        <ele>422.905</ele>
        <time>2012-02-17T09:47:04Z</time>
      </trkpt>
      <trkpt lat="47.31622" lon="4.93955">
        <ele>422.38</ele>
        <time>2012-02-17T09:47:15Z</time>
      </trkpt>
      <trkpt lat="47.31623" lon="4.93955">
        <ele>421.253</ele>
        <time>2012-02-17T09:47:26Z</time>
      </trkpt>
      <trkpt lat="47.31625" lon="4.93957">
        <ele>421.732</ele>
        <time>2012-02-17T09:47:37Z</time>
      </trkpt>
      <trkpt lat="47.31632" lon="4.93957">
        <ele>419.564</ele>
        <time>2012-02-17T09:47:48Z</time>
      </trkpt>
      <trkpt lat="47.31635" lon="4.93957">
        <ele>421.236</ele>
        <time>2012-02-17T09:47:59Z</time>
      </trkpt>
      <trkpt lat="47.3164" lon="4.93957">
        <ele>421.709</ele>
        <time>2012-02-17T09:48:10Z</time>
      </trkpt>
      <trkpt lat="47.3164" lon="4.93957">
        <ele>421.225</ele>
        <time>2012-02-17T09:48:21Z</time>
      </trkpt>
      <trkpt lat="47.3164" lon="4.93957">
        <ele>421.225</ele>
        <time>2012-02-17T09:48:32Z</time>
      </trkpt>
      <trkpt lat="47.3164" lon="4.93957">
        <ele>421.225</ele>
        <time>2012-02-17T09:48:43Z</time>
      </trkpt>
      <trkpt lat="47.3164" lon="4.93957">
        <ele>421.225</ele>
        <time>2012-02-17T09:48:54Z</time>
      </trkpt>
      <trkpt lat="47.31642" lon="4.93957">
        <ele>420.767</ele>
        <time>2012-02-17T09:49:05Z</time>
      </trkpt>
      <trkpt lat="47.31642" lon="4.93957">
        <ele>421.228</ele>
        <time>2012-02-17T09:49:16Z</time>
      </trkpt>
      <trkpt lat="47.31645" lon="4.93957">
        <ele>420.943</ele>
        <time>2012-02-17T09:49:27Z</time>
      </trkpt>
      <trkpt lat="47.31647" lon="4.93957">
        <ele>421.33</ele>
        <time>2012-02-17T09:49:38Z</time>
      </trkpt>
      <trkpt lat="47.31647" lon="4.93955">
        <ele>421.615</ele>
        <time>2012-02-17T09:49:49Z</time>
      </trkpt>
      <trkpt lat="47.31648" lon="4.93955">
        <ele>422.214</ele>
        <time>2012-02-17T09:50:00Z</time>
      </trkpt>
      <trkpt lat="47.31648" lon="4.93955">
        <ele>422.214</ele>
        <time>2012-02-17T09:50:11Z</time>
      </trkpt>
      <trkpt lat="47.3165" lon="4.9396">
        <ele>421.407</ele>
        <time>2012-02-17T09:50:22Z</time>
      </trkpt>
      <trkpt lat="47.31652" lon="4.93962">
        <ele>421.897</ele>
        <time>2012-02-17T09:50:33Z</time>
      </trkpt>
      <trkpt lat="47.31653" lon="4.93962">
        <ele>421.975</ele>
        <time>2012-02-17T09:50:44Z</time>
      </trkpt>
      <trkpt lat="47.31655" lon="4.93967">
        <ele>422.131</ele>
        <time>2012-02-17T09:50:55Z</time>
      </trkpt>
      <trkpt lat="47.31657" lon="4.9397">
        <ele>422.493</ele>
        <time>2012-02-17T09:51:06Z</time>
      </trkpt>
      <trkpt lat="47.31658" lon="4.93975">
        <ele>422.957</ele>
        <time>2012-02-17T09:51:17Z</time>
      </trkpt>
      <trkpt lat="47.31663" lon="4.93987">
        <ele>421.117</ele>
        <time>2012-02-17T09:51:28Z</time>
      </trkpt>
      <trkpt lat="47.31667" lon="4.93993">
        <ele>420.502</ele>
        <time>2012-02-17T09:51:39Z</time>
      </trkpt>
      <trkpt lat="47.31668" lon="4.94">
        <ele>419.651</ele>
        <time>2012-02-17T09:51:50Z</time>
      </trkpt>
      <trkpt lat="47.31672" lon="4.94005">
        <ele>420.287</ele>
        <time>2012-02-17T09:52:01Z</time>
      </trkpt>
      <trkpt lat="47.31678" lon="4.94013">
        <ele>420.193</ele>
        <time>2012-02-17T09:52:12Z</time>
      </trkpt>
      <trkpt lat="47.31685" lon="4.94023">
        <ele>419.57</ele>
        <time>2012-02-17T09:52:23Z</time>
      </trkpt>
      <trkpt lat="47.31693" lon="4.9403">
        <ele>418.788</ele>
        <time>2012-02-17T09:52:34Z</time>
      </trkpt>
      <trkpt lat="47.31712" lon="4.94045">
        <ele>418.523</ele>
        <time>2012-02-17T09:52:45Z</time>
      </trkpt>
      <trkpt lat="47.31727" lon="4.94057">
        <ele>418.823</ele>
        <time>2012-02-17T09:52:56Z</time>
      </trkpt>
      <trkpt lat="47.31742" lon="4.9407">
        <ele>418.355</ele>
        <time>2012-02-17T09:53:07Z</time>
      </trkpt>
      <trkpt lat="47.31755" lon="4.94083">
        <ele>416.695</ele>
        <time>2012-02-17T09:53:18Z</time>
      </trkpt>
      <trkpt lat="47.31762" lon="4.9409">
        <ele>415.788</ele>
        <time>2012-02-17T09:53:29Z</time>
      </trkpt>
      <trkpt lat="47.31772" lon="4.941">
        <ele>418.162</ele>
        <time>2012-02-17T09:53:40Z</time>
      </trkpt>
      <trkpt lat="47.31788" lon="4.94115">
        <ele>417.033</ele>
        <time>2012-02-17T09:53:51Z</time>
      </trkpt>
      <trkpt lat="47.31803" lon="4.9413">
        <ele>417.571</ele>
        <time>2012-02-17T09:54:02Z</time>
      </trkpt>
      <trkpt lat="47.31813" lon="4.94143">
        <ele>416.534</ele>
        <time>2012-02-17T09:54:13Z</time>
      </trkpt>
      <trkpt lat="47.31827" lon="4.9416">
        <ele>416.465</ele>
        <time>2012-02-17T09:54:24Z</time>
      </trkpt>
      <trkpt lat="47.31837" lon="4.9417">
        <ele>416.624</ele>
        <time>2012-02-17T09:54:35Z</time>
      </trkpt>
      <trkpt lat="47.31842" lon="4.94175">
        <ele>415.59</ele>
        <time>2012-02-17T09:54:46Z</time>
      </trkpt>
      <trkpt lat="47.31852" lon="4.94187">
        <ele>417.271</ele>
        <time>2012-02-17T09:54:57Z</time>
      </trkpt>
      <trkpt lat="47.31868" lon="4.94205">
        <ele>415.571</ele>
        <time>2012-02-17T09:55:08Z</time>
      </trkpt>
      <trkpt lat="47.31883" lon="4.9422">
        <ele>413.925</ele>
        <time>2012-02-17T09:55:19Z</time>
      </trkpt>
      <trkpt lat="47.31898" lon="4.94225">
        <ele>414.005</ele>
        <time>2012-02-17T09:55:30Z</time>
      </trkpt>
      <trkpt lat="47.31907" lon="4.94225">
        <ele>413.579</ele>
        <time>2012-02-17T09:55:41Z</time>
      </trkpt>
      <trkpt lat="47.31917" lon="4.94228">
        <ele>413.849</ele>
        <time>2012-02-17T09:55:52Z</time>
      </trkpt>
      <trkpt lat="47.31933" lon="4.94228">
        <ele>413.952</ele>
        <time>2012-02-17T09:56:03Z</time>
      </trkpt>
      <trkpt lat="47.31942" lon="4.9423">
        <ele>414.191</ele>
        <time>2012-02-17T09:56:14Z</time>
      </trkpt>
      <trkpt lat="47.31955" lon="4.94225">
        <ele>414.162</ele>
        <time>2012-02-17T09:56:25Z</time>
      </trkpt>
      <trkpt lat="47.31968" lon="4.9422">
        <ele>414.287</ele>
        <time>2012-02-17T09:56:36Z</time>
      </trkpt>
      <trkpt lat="47.31978" lon="4.94212">
        <ele>414.793</ele>
        <time>2012-02-17T09:56:47Z</time>
      </trkpt>
      <trkpt lat="47.31988" lon="4.94205">
        <ele>414.449</ele>
        <time>2012-02-17T09:56:58Z</time>
      </trkpt>
      <trkpt lat="47.32" lon="4.94187">
        <ele>414.35</ele>
        <time>2012-02-17T09:57:09Z</time>
      </trkpt>
      <trkpt lat="47.32008" lon="4.94177">
        <ele>415.446</ele>
        <time>2012-02-17T09:57:20Z</time>
      </trkpt>
      <trkpt lat="47.32018" lon="4.94163">
        <ele>416.663</ele>
        <time>2012-02-17T09:57:31Z</time>
      </trkpt>
      <trkpt lat="47.3203" lon="4.94152">
        <ele>418.751</ele>
        <time>2012-02-17T09:57:42Z</time>
      </trkpt>
      <trkpt lat="47.32042" lon="4.94135">
        <ele>421.098</ele>
        <time>2012-02-17T09:57:53Z</time>
      </trkpt>
      <trkpt lat="47.32058" lon="4.94125">
        <ele>421.077</ele>
        <time>2012-02-17T09:58:04Z</time>
      </trkpt>
      <trkpt lat="47.32067" lon="4.94123">
        <ele>422.442</ele>
        <time>2012-02-17T09:58:15Z</time>
      </trkpt>
      <trkpt lat="47.32078" lon="4.94123">
        <ele>422.307</ele>
        <time>2012-02-17T09:58:26Z</time>
      </trkpt>
      <trkpt lat="47.32092" lon="4.94123">
        <ele>420.126</ele>
        <time>2012-02-17T09:58:37Z</time>
      </trkpt>
      <trkpt lat="47.3211" lon="4.94122">
        <ele>416.806</ele>
        <time>2012-02-17T09:58:48Z</time>
      </trkpt>
      <trkpt lat="47.32127" lon="4.94118">
        <ele>416.239</ele>
        <time>2012-02-17T09:58:59Z</time>
      </trkpt>
      <trkpt lat="47.3214" lon="4.94115">
        <ele>416.267</ele>
        <time>2012-02-17T09:59:10Z</time>
      </trkpt>
      <trkpt lat="47.32157" lon="4.94117">
        <ele>413.703</ele>
        <time>2012-02-17T09:59:21Z</time>
      </trkpt>
      <trkpt lat="47.32168" lon="4.9411">
        <ele>412.919</ele>
        <time>2012-02-17T09:59:32Z</time>
      </trkpt>
      <trkpt lat="47.32182" lon="4.94108">
        <ele>410.853</ele>
        <time>2012-02-17T09:59:43Z</time>
      </trkpt>
      <trkpt lat="47.32198" lon="4.94105">
        <ele>410.712</ele>
        <time>2012-02-17T09:59:54Z</time>
      </trkpt>
      <trkpt lat="47.32212" lon="4.94105">
        <ele>411.72</ele>
        <time>2012-02-17T10:00:05Z</time>
      </trkpt>
      <trkpt lat="47.32223" lon="4.94105">
        <ele>410.43</ele>
        <time>2012-02-17T10:00:16Z</time>
      </trkpt>
      <trkpt lat="47.32238" lon="4.94105">
        <ele>409.506</ele>
        <time>2012-02-17T10:00:27Z</time>
      </trkpt>
      <trkpt lat="47.32258" lon="4.94117">
        <ele>407.761</ele>
        <time>2012-02-17T10:00:38Z</time>
      </trkpt>
      <trkpt lat="47.32272" lon="4.94122">
        <ele>407.133</ele>
        <time>2012-02-17T10:00:49Z</time>
      </trkpt>
      <trkpt lat="47.3229" lon="4.9413">
        <ele>407.776</ele>
        <time>2012-02-17T10:01:00Z</time>
      </trkpt>
      <trkpt lat="47.323" lon="4.94133">
        <ele>406.423</ele>
        <time>2012-02-17T10:01:11Z</time>
      </trkpt>
      <trkpt lat="47.3231" lon="4.94138">
        <ele>405.757</ele>
        <time>2012-02-17T10:01:22Z</time>
      </trkpt>
      <trkpt lat="47.32328" lon="4.94143">
        <ele>403.602</ele>
        <time>2012-02-17T10:01:33Z</time>
      </trkpt>
      <trkpt lat="47.32347" lon="4.94148">
        <ele>401.422</ele>
        <time>2012-02-17T10:01:44Z</time>
      </trkpt>
      <trkpt lat="47.32365" lon="4.94157">
        <ele>398.626</ele>
        <time>2012-02-17T10:01:55Z</time>
      </trkpt>
      <trkpt lat="47.32378" lon="4.94163">
        <ele>399.437</ele>
        <time>2012-02-17T10:02:06Z</time>
      </trkpt>
      <trkpt lat="47.32383" lon="4.94167">
        <ele>397.631</ele>
        <time>2012-02-17T10:02:17Z</time>
      </trkpt>
      <trkpt lat="47.32388" lon="4.94167">
        <ele>397.444</ele>
        <time>2012-02-17T10:02:28Z</time>
      </trkpt>
      <trkpt lat="47.32395" lon="4.94168">
        <ele>396.65</ele>
        <time>2012-02-17T10:02:39Z</time>
      </trkpt>
      <trkpt lat="47.32408" lon="4.9417">
        <ele>395.198</ele>
        <time>2012-02-17T10:02:50Z</time>
      </trkpt>
      <trkpt lat="47.3242" lon="4.94167">
        <ele>394.256</ele>
        <time>2012-02-17T10:03:01Z</time>
      </trkpt>
      <trkpt lat="47.32432" lon="4.94163">
        <ele>393.114</ele>
        <time>2012-02-17T10:03:12Z</time>
      </trkpt>
      <trkpt lat="47.32432" lon="4.94153">
        <ele>389.335</ele>
        <time>2012-02-17T10:03:23Z</time>
      </trkpt>
      <trkpt lat="47.32432" lon="4.9414">
        <ele>389.74</ele>
        <time>2012-02-17T10:03:34Z</time>
      </trkpt>
      <trkpt lat="47.32432" lon="4.9414">
        <ele>389.562</ele>
        <time>2012-02-17T10:03:45Z</time>
      </trkpt>
      <trkpt lat="47.3243" lon="4.94128">
        <ele>389.96</ele>
        <time>2012-02-17T10:03:56Z</time>
      </trkpt>
      <trkpt lat="47.32427" lon="4.94118">
        <ele>391.625</ele>
        <time>2012-02-17T10:04:07Z</time>
      </trkpt>
      <trkpt lat="47.3242" lon="4.94103">
        <ele>392.535</ele>
        <time>2012-02-17T10:04:18Z</time>
      </trkpt>
      <trkpt lat="47.32417" lon="4.94097">
        <ele>394.491</ele>
        <time>2012-02-17T10:04:29Z</time>
      </trkpt>
      <trkpt lat="47.3241" lon="4.94083">
        <ele>394.437</ele>
        <time>2012-02-17T10:04:40Z</time>
      </trkpt>
      <trkpt lat="47.32402" lon="4.94073">
        <ele>393.633</ele>
        <time>2012-02-17T10:04:51Z</time>
      </trkpt>
      <trkpt lat="47.324" lon="4.94065">
        <ele>392.017</ele>
        <time>2012-02-17T10:05:02Z</time>
      </trkpt>
      <trkpt lat="47.324" lon="4.94065">
        <ele>392.017</ele>
        <time>2012-02-17T10:05:13Z</time>
      </trkpt>
      <trkpt lat="47.324" lon="4.94065">
        <ele>392.017</ele>
        <time>2012-02-17T10:05:24Z</time>
      </trkpt>
      <trkpt lat="47.324" lon="4.94065">
        <ele>392.017</ele>
        <time>2012-02-17T10:05:35Z</time>
      </trkpt>
      <trkpt lat="47.324" lon="4.94065">
        <ele>392.017</ele>
        <time>2012-02-17T10:05:46Z</time>
      </trkpt>
      <trkpt lat="47.324" lon="4.94065">
        <ele>392.017</ele>
        <time>2012-02-17T10:05:57Z</time>
      </trkpt>
      <trkpt lat="47.324" lon="4.94065">
        <ele>392.017</ele>
        <time>2012-02-17T10:06:08Z</time>
      </trkpt>
      <trkpt lat="47.324" lon="4.94065">
        <ele>392.017</ele>
        <time>2012-02-17T10:06:19Z</time>
      </trkpt>
      <trkpt lat="47.324" lon="4.94065">
        <ele>392.017</ele>
        <time>2012-02-17T10:06:30Z</time>
      </trkpt>
      <trkpt lat="47.324" lon="4.94065">
        <ele>392.017</ele>
        <time>2012-02-17T10:06:41Z</time>
      </trkpt>
      <trkpt lat="47.324" lon="4.94063">
        <ele>391.68</ele>
        <time>2012-02-17T10:06:52Z</time>
      </trkpt>
      <trkpt lat="47.324" lon="4.94063">
        <ele>391.68</ele>
        <time>2012-02-17T10:07:03Z</time>
      </trkpt>
      <trkpt lat="47.32398" lon="4.94062">
        <ele>391.206</ele>
        <time>2012-02-17T10:07:14Z</time>
      </trkpt>
      <trkpt lat="47.32395" lon="4.94053">
        <ele>392.156</ele>
        <time>2012-02-17T10:07:25Z</time>
      </trkpt>
      <trkpt lat="47.32395" lon="4.9405">
        <ele>392.026</ele>
        <time>2012-02-17T10:07:36Z</time>
      </trkpt>
      <trkpt lat="47.3239" lon="4.94038">
        <ele>391.485</ele>
        <time>2012-02-17T10:07:47Z</time>
      </trkpt>
      <trkpt lat="47.32383" lon="4.9403">
        <ele>391.46</ele>
        <time>2012-02-17T10:07:58Z</time>
      </trkpt>
      <trkpt lat="47.32375" lon="4.94012">
        <ele>390.823</ele>
        <time>2012-02-17T10:08:09Z</time>
      </trkpt>
      <trkpt lat="47.32363" lon="4.93998">
        <ele>390.901</ele>
        <time>2012-02-17T10:08:20Z</time>
      </trkpt>
      <trkpt lat="47.32355" lon="4.93987">
        <ele>390.117</ele>
        <time>2012-02-17T10:08:31Z</time>
      </trkpt>
      <trkpt lat="47.32353" lon="4.9398">
        <ele>393.006</ele>
        <time>2012-02-17T10:08:42Z</time>
      </trkpt>
      <trkpt lat="47.32348" lon="4.93968">
        <ele>391.792</ele>
        <time>2012-02-17T10:08:53Z</time>
      </trkpt>
      <trkpt lat="47.32335" lon="4.93945">
        <ele>393.934</ele>
        <time>2012-02-17T10:09:04Z</time>
      </trkpt>
      <trkpt lat="47.3233" lon="4.93937">
        <ele>394.977</ele>
        <time>2012-02-17T10:09:15Z</time>
      </trkpt>
      <trkpt lat="47.32322" lon="4.93917">
        <ele>394.011</ele>
        <time>2012-02-17T10:09:26Z</time>
      </trkpt>
      <trkpt lat="47.3231" lon="4.93912">
        <ele>392.395</ele>
        <time>2012-02-17T10:09:37Z</time>
      </trkpt>
      <trkpt lat="47.323" lon="4.93915">
        <ele>391.668</ele>
        <time>2012-02-17T10:09:48Z</time>
      </trkpt>
      <trkpt lat="47.32292" lon="4.93915">
        <ele>394.95</ele>
        <time>2012-02-17T10:09:59Z</time>
      </trkpt>
      <trkpt lat="47.32282" lon="4.93918">
        <ele>398.766</ele>
        <time>2012-02-17T10:10:10Z</time>
      </trkpt>
      <trkpt lat="47.32275" lon="4.93925">
        <ele>402.569</ele>
        <time>2012-02-17T10:10:21Z</time>
      </trkpt>
      <trkpt lat="47.32262" lon="4.93922">
        <ele>402.938</ele>
        <time>2012-02-17T10:10:32Z</time>
      </trkpt>
      <trkpt lat="47.32253" lon="4.93913">
        <ele>403.201</ele>
        <time>2012-02-17T10:10:43Z</time>
      </trkpt>
      <trkpt lat="47.32242" lon="4.93907">
        <ele>404.538</ele>
        <time>2012-02-17T10:10:54Z</time>
      </trkpt>
      <trkpt lat="47.32232" lon="4.93897">
        <ele>406.669</ele>
        <time>2012-02-17T10:11:05Z</time>
      </trkpt>
      <trkpt lat="47.32225" lon="4.9389">
        <ele>407.982</ele>
        <time>2012-02-17T10:11:16Z</time>
      </trkpt>
      <trkpt lat="47.32215" lon="4.93878">
        <ele>411.789</ele>
        <time>2012-02-17T10:11:27Z</time>
      </trkpt>
      <trkpt lat="47.32205" lon="4.9386">
        <ele>411.744</ele>
        <time>2012-02-17T10:11:38Z</time>
      </trkpt>
      <trkpt lat="47.32203" lon="4.9385">
        <ele>414.154</ele>
        <time>2012-02-17T10:11:49Z</time>
      </trkpt>
      <trkpt lat="47.32193" lon="4.9384">
        <ele>413.289</ele>
        <time>2012-02-17T10:12:00Z</time>
      </trkpt>
      <trkpt lat="47.32183" lon="4.93827">
        <ele>413.252</ele>
        <time>2012-02-17T10:12:11Z</time>
      </trkpt>
      <trkpt lat="47.32175" lon="4.9381">
        <ele>412.666</ele>
        <time>2012-02-17T10:12:22Z</time>
      </trkpt>
      <trkpt lat="47.32167" lon="4.93788">
        <ele>412.699</ele>
        <time>2012-02-17T10:12:33Z</time>
      </trkpt>
      <trkpt lat="47.32152" lon="4.93767">
        <ele>410.774</ele>
        <time>2012-02-17T10:12:44Z</time>
      </trkpt>
      <trkpt lat="47.32147" lon="4.9376">
        <ele>409.834</ele>
        <time>2012-02-17T10:12:55Z</time>
      </trkpt>
      <trkpt lat="47.32133" lon="4.93745">
        <ele>407.627</ele>
        <time>2012-02-17T10:13:06Z</time>
      </trkpt>
      <trkpt lat="47.32127" lon="4.93735">
        <ele>406.622</ele>
        <time>2012-02-17T10:13:17Z</time>
      </trkpt>
      <trkpt lat="47.3212" lon="4.93727">
        <ele>405.632</ele>
        <time>2012-02-17T10:13:28Z</time>
      </trkpt>
      <trkpt lat="47.32117" lon="4.93722">
        <ele>404.082</ele>
        <time>2012-02-17T10:13:39Z</time>
      </trkpt>
      <trkpt lat="47.32115" lon="4.93717">
        <ele>401.661</ele>
        <time>2012-02-17T10:13:50Z</time>
      </trkpt>
      <trkpt lat="47.32112" lon="4.93713">
        <ele>399.792</ele>
        <time>2012-02-17T10:14:01Z</time>
      </trkpt>
      <trkpt lat="47.32112" lon="4.93713">
        <ele>399.792</ele>
        <time>2012-02-17T10:14:12Z</time>
      </trkpt>
      <trkpt lat="47.32112" lon="4.93713">
        <ele>399.792</ele>
        <time>2012-02-17T10:14:23Z</time>
      </trkpt>
      <trkpt lat="47.32112" lon="4.93713">
        <ele>399.792</ele>
        <time>2012-02-17T10:14:34Z</time>
      </trkpt>
      <trkpt lat="47.32112" lon="4.93712">
        <ele>399.357</ele>
        <time>2012-02-17T10:14:45Z</time>
      </trkpt>
      <trkpt lat="47.32112" lon="4.93712">
        <ele>399.357</ele>
        <time>2012-02-17T10:14:56Z</time>
      </trkpt>
      <trkpt lat="47.32112" lon="4.93712">
        <ele>399.544</ele>
        <time>2012-02-17T10:15:07Z</time>
      </trkpt>
      <trkpt lat="47.32112" lon="4.93712">
        <ele>399.544</ele>
        <time>2012-02-17T10:15:18Z</time>
      </trkpt>
      <trkpt lat="47.32112" lon="4.93712">
        <ele>399.544</ele>
        <time>2012-02-17T10:15:29Z</time>
      </trkpt>
      <trkpt lat="47.32108" lon="4.93707">
        <ele>398.927</ele>
        <time>2012-02-17T10:15:40Z</time>
      </trkpt>
      <trkpt lat="47.32095" lon="4.93707">
        <ele>396.487</ele>
        <time>2012-02-17T10:15:51Z</time>
      </trkpt>
      <trkpt lat="47.32088" lon="4.93705">
        <ele>396.176</ele>
        <time>2012-02-17T10:16:02Z</time>
      </trkpt>
      <trkpt lat="47.32077" lon="4.93707">
        <ele>393.789</ele>
        <time>2012-02-17T10:16:13Z</time>
      </trkpt>
      <trkpt lat="47.32068" lon="4.93717">
        <ele>390.813</ele>
        <time>2012-02-17T10:16:24Z</time>
      </trkpt>
      <trkpt lat="47.3206" lon="4.9372">
        <ele>389.492</ele>
        <time>2012-02-17T10:16:35Z</time>
      </trkpt>
      <trkpt lat="47.3205" lon="4.93727">
        <ele>390.881</ele>
        <time>2012-02-17T10:16:46Z</time>
      </trkpt>
      <trkpt lat="47.32038" lon="4.93737">
        <ele>389.698</ele>
        <time>2012-02-17T10:16:57Z</time>
      </trkpt>
      <trkpt lat="47.32028" lon="4.9374">
        <ele>389.309</ele>
        <time>2012-02-17T10:17:08Z</time>
      </trkpt>
      <trkpt lat="47.32028" lon="4.9374">
        <ele>388.761</ele>
        <time>2012-02-17T10:17:19Z</time>
      </trkpt>
      <trkpt lat="47.32027" lon="4.93742">
        <ele>388.358</ele>
        <time>2012-02-17T10:17:30Z</time>
      </trkpt>
      <trkpt lat="47.32025" lon="4.93742">
        <ele>388.281</ele>
        <time>2012-02-17T10:17:41Z</time>
      </trkpt>
      <trkpt lat="47.32025" lon="4.93742">
        <ele>388.038</ele>
        <time>2012-02-17T10:17:52Z</time>
      </trkpt>
      <trkpt lat="47.32025" lon="4.93742">
        <ele>388.038</ele>
        <time>2012-02-17T10:18:03Z</time>
      </trkpt>
      <trkpt lat="47.32025" lon="4.93742">
        <ele>388.137</ele>
        <time>2012-02-17T10:18:14Z</time>
      </trkpt>
      <trkpt lat="47.32023" lon="4.93742">
        <ele>387.944</ele>
        <time>2012-02-17T10:18:25Z</time>
      </trkpt>
      <trkpt lat="47.32023" lon="4.93742">
        <ele>387.944</ele>
        <time>2012-02-17T10:18:36Z</time>
      </trkpt>
      <trkpt lat="47.3202" lon="4.93743">
        <ele>386.946</ele>
        <time>2012-02-17T10:18:47Z</time>
      </trkpt>
      <trkpt lat="47.32015" lon="4.93755">
        <ele>385.623</ele>
        <time>2012-02-17T10:18:58Z</time>
      </trkpt>
      <trkpt lat="47.3201" lon="4.93762">
        <ele>383.875</ele>
        <time>2012-02-17T10:19:09Z</time>
      </trkpt>
      <trkpt lat="47.32008" lon="4.93767">
        <ele>383.636</ele>
        <time>2012-02-17T10:19:20Z</time>
      </trkpt>
      <trkpt lat="47.32007" lon="4.93768">
        <ele>383.031</ele>
        <time>2012-02-17T10:19:31Z</time>
      </trkpt>
      <trkpt lat="47.32007" lon="4.93768">
        <ele>382.742</ele>
        <time>2012-02-17T10:19:42Z</time>
      </trkpt>
      <trkpt lat="47.32005" lon="4.9377">
        <ele>382.385</ele>
        <time>2012-02-17T10:19:53Z</time>
      </trkpt>
      <trkpt lat="47.32005" lon="4.9377">
        <ele>382.385</ele>
        <time>2012-02-17T10:20:04Z</time>
      </trkpt>
      <trkpt lat="47.32005" lon="4.9377">
        <ele>382.37</ele>
        <time>2012-02-17T10:20:15Z</time>
      </trkpt>
      <trkpt lat="47.32005" lon="4.9377">
        <ele>382.37</ele>
        <time>2012-02-17T10:20:26Z</time>
      </trkpt>
      <trkpt lat="47.32005" lon="4.9377">
        <ele>382.37</ele>
        <time>2012-02-17T10:20:37Z</time>
      </trkpt>
      <trkpt lat="47.32005" lon="4.9377">
        <ele>382.37</ele>
        <time>2012-02-17T10:20:48Z</time>
      </trkpt>
      <trkpt lat="47.32005" lon="4.9377">
        <ele>382.21</ele>
        <time>2012-02-17T10:20:59Z</time>
      </trkpt>
      <trkpt lat="47.32005" lon="4.9377">
        <ele>382.211</ele>
        <time>2012-02-17T10:21:10Z</time>
      </trkpt>
      <trkpt lat="47.32005" lon="4.9377">
        <ele>382.211</ele>
        <time>2012-02-17T10:21:21Z</time>
      </trkpt>
      <trkpt lat="47.32005" lon="4.93772">
        <ele>382.127</ele>
        <time>2012-02-17T10:21:32Z</time>
      </trkpt>
      <trkpt lat="47.32005" lon="4.93772">
        <ele>382.127</ele>
        <time>2012-02-17T10:21:43Z</time>
      </trkpt>
      <trkpt lat="47.32003" lon="4.93772">
        <ele>381.523</ele>
        <time>2012-02-17T10:21:54Z</time>
      </trkpt>
      <trkpt lat="47.32003" lon="4.93773">
        <ele>381.088</ele>
        <time>2012-02-17T10:22:05Z</time>
      </trkpt>
      <trkpt lat="47.32003" lon="4.93773">
        <ele>381.088</ele>
        <time>2012-02-17T10:22:16Z</time>
      </trkpt>
      <trkpt lat="47.32003" lon="4.93773">
        <ele>381.088</ele>
        <time>2012-02-17T10:22:27Z</time>
      </trkpt>
      <trkpt lat="47.32003" lon="4.93773">
        <ele>380.819</ele>
        <time>2012-02-17T10:22:38Z</time>
      </trkpt>
      <trkpt lat="47.32002" lon="4.93773">
        <ele>380.053</ele>
        <time>2012-02-17T10:22:49Z</time>
      </trkpt>
      <trkpt lat="47.32002" lon="4.93773">
        <ele>380.053</ele>
        <time>2012-02-17T10:23:00Z</time>
      </trkpt>
      <trkpt lat="47.32002" lon="4.93775">
        <ele>379.405</ele>
        <time>2012-02-17T10:23:11Z</time>
      </trkpt>
      <trkpt lat="47.32002" lon="4.93775">
        <ele>379.405</ele>
        <time>2012-02-17T10:23:22Z</time>
      </trkpt>
      <trkpt lat="47.31998" lon="4.93775">
        <ele>377.374</ele>
        <time>2012-02-17T10:23:33Z</time>
      </trkpt>
      <trkpt lat="47.31998" lon="4.93775">
        <ele>376.849</ele>
        <time>2012-02-17T10:23:44Z</time>
      </trkpt>
      <trkpt lat="47.31998" lon="4.93775">
        <ele>376.762</ele>
        <time>2012-02-17T10:23:55Z</time>
      </trkpt>
      <trkpt lat="47.31997" lon="4.93777">
        <ele>375.366</ele>
        <time>2012-02-17T10:24:06Z</time>
      </trkpt>
      <trkpt lat="47.31993" lon="4.93777">
        <ele>374.122</ele>
        <time>2012-02-17T10:24:17Z</time>
      </trkpt>
      <trkpt lat="47.31992" lon="4.93777">
        <ele>367.5</ele>
        <time>2012-02-17T10:24:28Z</time>
      </trkpt>
      <trkpt lat="47.31988" lon="4.93782">
        <ele>371.441</ele>
        <time>2012-02-17T10:24:39Z</time>
      </trkpt>
      <trkpt lat="47.31988" lon="4.93783">
        <ele>370.292</ele>
        <time>2012-02-17T10:24:50Z</time>
      </trkpt>
      <trkpt lat="47.31982" lon="4.93792">
        <ele>367.311</ele>
        <time>2012-02-17T10:25:01Z</time>
      </trkpt>
      <trkpt lat="47.31975" lon="4.93805">
        <ele>355</ele>
        <time>2012-02-17T10:25:12Z</time>
      </trkpt>
      <trkpt lat="47.31968" lon="4.93815">
        <ele>364.953</ele>
        <time>2012-02-17T10:25:23Z</time>
      </trkpt>
      <trkpt lat="47.31962" lon="4.93813">
        <ele>364.073</ele>
        <time>2012-02-17T10:25:34Z</time>
      </trkpt>
      <trkpt lat="47.31958" lon="4.93813">
        <ele>364.459</ele>
        <time>2012-02-17T10:25:45Z</time>
      </trkpt>
      <trkpt lat="47.31955" lon="4.93808">
        <ele>340.4</ele>
        <time>2012-02-17T10:25:56Z</time>
      </trkpt>
      <trkpt lat="47.31947" lon="4.938">
        <ele>361.08</ele>
        <time>2012-02-17T10:26:07Z</time>
      </trkpt>
      <trkpt lat="47.31938" lon="4.93798">
        <ele>360.141</ele>
        <time>2012-02-17T10:26:18Z</time>
      </trkpt>
      <trkpt lat="47.31932" lon="4.93787">
        <ele>360.641</ele>
        <time>2012-02-17T10:26:29Z</time>
      </trkpt>
      <trkpt lat="47.31927" lon="4.93775">
        <ele>359.496</ele>
        <time>2012-02-17T10:26:40Z</time>
      </trkpt>
      <trkpt lat="47.31925" lon="4.93763">
        <ele>359.074</ele>
        <time>2012-02-17T10:26:51Z</time>
      </trkpt>
      <trkpt lat="47.31927" lon="4.93735">
        <ele>359.739</ele>
        <time>2012-02-17T10:27:02Z</time>
      </trkpt>
      <trkpt lat="47.31925" lon="4.93717">
        <ele>359.206</ele>
        <time>2012-02-17T10:27:13Z</time>
      </trkpt>
      <trkpt lat="47.31922" lon="4.93697">
        <ele>360.925</ele>
        <time>2012-02-17T10:27:24Z</time>
      </trkpt>
      <trkpt lat="47.31923" lon="4.93675">
        <ele>361.56</ele>
        <time>2012-02-17T10:27:35Z</time>
      </trkpt>
      <trkpt lat="47.31925" lon="4.93655">
        <ele>361.65</ele>
        <time>2012-02-17T10:27:46Z</time>
      </trkpt>
      <trkpt lat="47.31933" lon="4.93635">
        <ele>361.977</ele>
        <time>2012-02-17T10:27:58Z</time>
      </trkpt>
      <trkpt lat="47.31942" lon="4.93617">
        <ele>361.73</ele>
        <time>2012-02-17T10:28:09Z</time>
      </trkpt>
      <trkpt lat="47.31945" lon="4.93605">
        <ele>360.515</ele>
        <time>2012-02-17T10:28:20Z</time>
      </trkpt>
      <trkpt lat="47.31947" lon="4.93595">
        <ele>361.759</ele>
        <time>2012-02-17T10:28:31Z</time>
      </trkpt>
      <trkpt lat="47.31945" lon="4.93588">
        <ele>293.7</ele>
        <time>2012-02-17T10:28:42Z</time>
      </trkpt>
      <trkpt lat="47.31943" lon="4.93582">
        <ele>364.177</ele>
        <time>2012-02-17T10:28:53Z</time>
      </trkpt>
      <trkpt lat="47.3194" lon="4.9358">
        <ele>363.624</ele>
        <time>2012-02-17T10:29:04Z</time>
      </trkpt>
      <trkpt lat="47.31933" lon="4.93573">
        <ele>362.41</ele>
        <time>2012-02-17T10:29:15Z</time>
      </trkpt>
      <trkpt lat="47.31933" lon="4.9357">
        <ele>366.26</ele>
        <time>2012-02-17T10:29:26Z</time>
      </trkpt>
      <trkpt lat="47.31933" lon="4.93568">
        <ele>297.6</ele>
        <time>2012-02-17T10:29:37Z</time>
      </trkpt>
      <trkpt lat="47.31927" lon="4.93563">
        <ele>369.762</ele>
        <time>2012-02-17T10:29:49Z</time>
      </trkpt>
      <trkpt lat="47.31922" lon="4.93563">
        <ele>370.53</ele>
        <time>2012-02-17T10:30:00Z</time>
      </trkpt>
      <trkpt lat="47.31922" lon="4.93562">
        <ele>302.4</ele>
        <time>2012-02-17T10:30:11Z</time>
      </trkpt>
      <trkpt lat="47.3192" lon="4.93562">
        <ele>370.503</ele>
        <time>2012-02-17T10:30:22Z</time>
      </trkpt>
      <trkpt lat="47.31918" lon="4.9356">
        <ele>371.492</ele>
        <time>2012-02-17T10:30:33Z</time>
      </trkpt>
      <trkpt lat="47.31918" lon="4.93557">
        <ele>373.916</ele>
        <time>2012-02-17T10:30:44Z</time>
      </trkpt>
      <trkpt lat="47.31915" lon="4.93557">
        <ele>374.152</ele>
        <time>2012-02-17T10:30:55Z</time>
      </trkpt>
      <trkpt lat="47.31913" lon="4.93555">
        <ele>306.4</ele>
        <time>2012-02-17T10:31:06Z</time>
      </trkpt>
      <trkpt lat="47.31907" lon="4.9355">
        <ele>375.812</ele>
        <time>2012-02-17T10:31:17Z</time>
      </trkpt>
      <trkpt lat="47.31905" lon="4.93548">
        <ele>310.8</ele>
        <time>2012-02-17T10:31:28Z</time>
      </trkpt>
      <trkpt lat="47.319" lon="4.93547">
        <ele>313.1</ele>
        <time>2012-02-17T10:31:39Z</time>
      </trkpt>
      <trkpt lat="47.31892" lon="4.93545">
        <ele>378.259</ele>
        <time>2012-02-17T10:31:50Z</time>
      </trkpt>
      <trkpt lat="47.3189" lon="4.93543">
        <ele>377.75</ele>
        <time>2012-02-17T10:32:01Z</time>
      </trkpt>
      <trkpt lat="47.31885" lon="4.9354">
        <ele>377.646</ele>
        <time>2012-02-17T10:32:12Z</time>
      </trkpt>
      <trkpt lat="47.31883" lon="4.9354">
        <ele>321.1</ele>
        <time>2012-02-17T10:32:23Z</time>
      </trkpt>
      <trkpt lat="47.3188" lon="4.9354">
        <ele>379.757</ele>
        <time>2012-02-17T10:32:34Z</time>
      </trkpt>
      <trkpt lat="47.31873" lon="4.93537">
        <ele>380.197</ele>
        <time>2012-02-17T10:32:45Z</time>
      </trkpt>
      <trkpt lat="47.3187" lon="4.93537">
        <ele>379.447</ele>
        <time>2012-02-17T10:32:56Z</time>
      </trkpt>
      <trkpt lat="47.31867" lon="4.93537">
        <ele>380.741</ele>
        <time>2012-02-17T10:33:07Z</time>
      </trkpt>
      <trkpt lat="47.31863" lon="4.93535">
        <ele>380.976</ele>
        <time>2012-02-17T10:33:18Z</time>
      </trkpt>
      <trkpt lat="47.31862" lon="4.93535">
        <ele>381.414</ele>
        <time>2012-02-17T10:33:29Z</time>
      </trkpt>
      <trkpt lat="47.31858" lon="4.93537">
        <ele>331.7</ele>
        <time>2012-02-17T10:33:40Z</time>
      </trkpt>
      <trkpt lat="47.31852" lon="4.93535">
        <ele>379.375</ele>
        <time>2012-02-17T10:33:51Z</time>
      </trkpt>
      <trkpt lat="47.31852" lon="4.93535">
        <ele>379.375</ele>
        <time>2012-02-17T10:34:02Z</time>
      </trkpt>
      <trkpt lat="47.31847" lon="4.93535">
        <ele>379.452</ele>
        <time>2012-02-17T10:34:13Z</time>
      </trkpt>
      <trkpt lat="47.31842" lon="4.93537">
        <ele>380.767</ele>
        <time>2012-02-17T10:34:24Z</time>
      </trkpt>
      <trkpt lat="47.31832" lon="4.93535">
        <ele>380.165</ele>
        <time>2012-02-17T10:34:35Z</time>
      </trkpt>
      <trkpt lat="47.31825" lon="4.93533">
        <ele>380.7</ele>
        <time>2012-02-17T10:34:46Z</time>
      </trkpt>
      <trkpt lat="47.31823" lon="4.93532">
        <ele>381.405</ele>
        <time>2012-02-17T10:34:57Z</time>
      </trkpt>
      <trkpt lat="47.3182" lon="4.93532">
        <ele>381.75</ele>
        <time>2012-02-17T10:35:08Z</time>
      </trkpt>
      <trkpt lat="47.31817" lon="4.93532">
        <ele>383.604</ele>
        <time>2012-02-17T10:35:19Z</time>
      </trkpt>
      <trkpt lat="47.31812" lon="4.93527">
        <ele>384.137</ele>
        <time>2012-02-17T10:35:30Z</time>
      </trkpt>
      <trkpt lat="47.31807" lon="4.93523">
        <ele>385.512</ele>
        <time>2012-02-17T10:35:41Z</time>
      </trkpt>
      <trkpt lat="47.31802" lon="4.93523">
        <ele>386.449</ele>
        <time>2012-02-17T10:35:52Z</time>
      </trkpt>
      <trkpt lat="47.31792" lon="4.9352">
        <ele>390.213</ele>
        <time>2012-02-17T10:36:03Z</time>
      </trkpt>
      <trkpt lat="47.3178" lon="4.93518">
        <ele>393.278</ele>
        <time>2012-02-17T10:36:14Z</time>
      </trkpt>
      <trkpt lat="47.31777" lon="4.9352">
        <ele>394.128</ele>
        <time>2012-02-17T10:36:25Z</time>
      </trkpt>
      <trkpt lat="47.31772" lon="4.93518">
        <ele>396.642</ele>
        <time>2012-02-17T10:36:36Z</time>
      </trkpt>
      <trkpt lat="47.31763" lon="4.93517">
        <ele>399.496</ele>
        <time>2012-02-17T10:36:47Z</time>
      </trkpt>
      <trkpt lat="47.31755" lon="4.93513">
        <ele>401.782</ele>
        <time>2012-02-17T10:36:58Z</time>
      </trkpt>
      <trkpt lat="47.3175" lon="4.9351">
        <ele>403.918</ele>
        <time>2012-02-17T10:37:09Z</time>
      </trkpt>
      <trkpt lat="47.3175" lon="4.9351">
        <ele>404.198</ele>
        <time>2012-02-17T10:37:20Z</time>
      </trkpt>
      <trkpt lat="47.31748" lon="4.9351">
        <ele>404.376</ele>
        <time>2012-02-17T10:37:31Z</time>
      </trkpt>
      <trkpt lat="47.31748" lon="4.9351">
        <ele>404.376</ele>
        <time>2012-02-17T10:37:42Z</time>
      </trkpt>
      <trkpt lat="47.31747" lon="4.9351">
        <ele>405.203</ele>
        <time>2012-02-17T10:37:53Z</time>
      </trkpt>
      <trkpt lat="47.31747" lon="4.9351">
        <ele>385</ele>
        <time>2012-02-17T10:38:04Z</time>
      </trkpt>
      <trkpt lat="47.31747" lon="4.9351">
        <ele>405.203</ele>
        <time>2012-02-17T10:38:15Z</time>
      </trkpt>
      <trkpt lat="47.31747" lon="4.9351">
        <ele>405.203</ele>
        <time>2012-02-17T10:38:26Z</time>
      </trkpt>
      <trkpt lat="47.31747" lon="4.9351">
        <ele>405.223</ele>
        <time>2012-02-17T10:38:37Z</time>
      </trkpt>
      <trkpt lat="47.31747" lon="4.9351">
        <ele>405.223</ele>
        <time>2012-02-17T10:38:48Z</time>
      </trkpt>
      <trkpt lat="47.31747" lon="4.9351">
        <ele>405.223</ele>
        <time>2012-02-17T10:38:59Z</time>
      </trkpt>
      <trkpt lat="47.31747" lon="4.9351">
        <ele>405.223</ele>
        <time>2012-02-17T10:39:10Z</time>
      </trkpt>
      <trkpt lat="47.31747" lon="4.9351">
        <ele>405.223</ele>
        <time>2012-02-17T10:39:21Z</time>
      </trkpt>
      <trkpt lat="47.31745" lon="4.9351">
        <ele>405.37</ele>
        <time>2012-02-17T10:39:32Z</time>
      </trkpt>
      <trkpt lat="47.31745" lon="4.93507">
        <ele>405.5</ele>
        <time>2012-02-17T10:39:43Z</time>
      </trkpt>
      <trkpt lat="47.31743" lon="4.935">
        <ele>407.414</ele>
        <time>2012-02-17T10:39:54Z</time>
      </trkpt>
      <trkpt lat="47.31745" lon="4.93495">
        <ele>406.429</ele>
        <time>2012-02-17T10:40:05Z</time>
      </trkpt>
      <trkpt lat="47.31747" lon="4.9349">
        <ele>408.076</ele>
        <time>2012-02-17T10:40:16Z</time>
      </trkpt>
      <trkpt lat="47.31757" lon="4.9349">
        <ele>407.102</ele>
        <time>2012-02-17T10:40:27Z</time>
      </trkpt>
      <trkpt lat="47.31763" lon="4.93485">
        <ele>407.471</ele>
        <time>2012-02-17T10:40:38Z</time>
      </trkpt>
      <trkpt lat="47.3177" lon="4.93475">
        <ele>407.375</ele>
        <time>2012-02-17T10:40:49Z</time>
      </trkpt>
      <trkpt lat="47.3178" lon="4.93467">
        <ele>408.746</ele>
        <time>2012-02-17T10:41:00Z</time>
      </trkpt>
      <trkpt lat="47.31783" lon="4.9345">
        <ele>395.2</ele>
        <time>2012-02-17T10:41:11Z</time>
      </trkpt>
      <trkpt lat="47.31792" lon="4.93433">
        <ele>409.802</ele>
        <time>2012-02-17T10:41:22Z</time>
      </trkpt>
      <trkpt lat="47.318" lon="4.93427">
        <ele>409.733</ele>
        <time>2012-02-17T10:41:33Z</time>
      </trkpt>
      <trkpt lat="47.31805" lon="4.93422">
        <ele>410.061</ele>
        <time>2012-02-17T10:41:44Z</time>
      </trkpt>
      <trkpt lat="47.31807" lon="4.93418">
        <ele>410.113</ele>
        <time>2012-02-17T10:41:55Z</time>
      </trkpt>
      <trkpt lat="47.31815" lon="4.9341">
        <ele>409.005</ele>
        <time>2012-02-17T10:42:06Z</time>
      </trkpt>
      <trkpt lat="47.31822" lon="4.934">
        <ele>394.9</ele>
        <time>2012-02-17T10:42:17Z</time>
      </trkpt>
      <trkpt lat="47.31827" lon="4.93368">
        <ele>407.237</ele>
        <time>2012-02-17T10:42:28Z</time>
      </trkpt>
      <trkpt lat="47.31825" lon="4.9335">
        <ele>406.026</ele>
        <time>2012-02-17T10:42:39Z</time>
      </trkpt>
      <trkpt lat="47.31818" lon="4.93332">
        <ele>405.499</ele>
        <time>2012-02-17T10:42:50Z</time>
      </trkpt>
      <trkpt lat="47.31808" lon="4.93318">
        <ele>406.797</ele>
        <time>2012-02-17T10:43:01Z</time>
      </trkpt>
      <trkpt lat="47.31795" lon="4.93322">
        <ele>406.714</ele>
        <time>2012-02-17T10:43:12Z</time>
      </trkpt>
      <trkpt lat="47.3178" lon="4.93322">
        <ele>407.236</ele>
        <time>2012-02-17T10:43:23Z</time>
      </trkpt>
      <trkpt lat="47.31768" lon="4.93328">
        <ele>409.446</ele>
        <time>2012-02-17T10:43:34Z</time>
      </trkpt>
      <trkpt lat="47.31763" lon="4.93337">
        <ele>401.7</ele>
        <time>2012-02-17T10:43:45Z</time>
      </trkpt>
      <trkpt lat="47.31752" lon="4.9335">
        <ele>412.215</ele>
        <time>2012-02-17T10:43:56Z</time>
      </trkpt>
      <trkpt lat="47.31737" lon="4.93362">
        <ele>414.06</ele>
        <time>2012-02-17T10:44:07Z</time>
      </trkpt>
      <trkpt lat="47.31723" lon="4.93377">
        <ele>413.076</ele>
        <time>2012-02-17T10:44:18Z</time>
      </trkpt>
      <trkpt lat="47.3171" lon="4.93392">
        <ele>412.249</ele>
        <time>2012-02-17T10:44:29Z</time>
      </trkpt>
      <trkpt lat="47.31697" lon="4.9341">
        <ele>409.778</ele>
        <time>2012-02-17T10:44:40Z</time>
      </trkpt>
      <trkpt lat="47.31683" lon="4.93425">
        <ele>410.033</ele>
        <time>2012-02-17T10:44:51Z</time>
      </trkpt>
      <trkpt lat="47.31672" lon="4.9344">
        <ele>401</ele>
        <time>2012-02-17T10:45:02Z</time>
      </trkpt>
      <trkpt lat="47.31662" lon="4.93455">
        <ele>411.27</ele>
        <time>2012-02-17T10:45:13Z</time>
      </trkpt>
      <trkpt lat="47.3165" lon="4.93472">
        <ele>412.185</ele>
        <time>2012-02-17T10:45:24Z</time>
      </trkpt>
      <trkpt lat="47.3164" lon="4.93483">
        <ele>412.136</ele>
        <time>2012-02-17T10:45:35Z</time>
      </trkpt>
      <trkpt lat="47.31625" lon="4.93498">
        <ele>413.458</ele>
        <time>2012-02-17T10:45:46Z</time>
      </trkpt>
      <trkpt lat="47.31612" lon="4.93512">
        <ele>413.702</ele>
        <time>2012-02-17T10:45:57Z</time>
      </trkpt>
      <trkpt lat="47.31603" lon="4.93522">
        <ele>415.682</ele>
        <time>2012-02-17T10:46:08Z</time>
      </trkpt>
      <trkpt lat="47.31593" lon="4.93537">
        <ele>416.384</ele>
        <time>2012-02-17T10:46:19Z</time>
      </trkpt>
      <trkpt lat="47.31585" lon="4.9355">
        <ele>406.5</ele>
        <time>2012-02-17T10:46:30Z</time>
      </trkpt>
      <trkpt lat="47.31575" lon="4.93563">
        <ele>419.143</ele>
        <time>2012-02-17T10:46:41Z</time>
      </trkpt>
      <trkpt lat="47.31567" lon="4.93573">
        <ele>420.442</ele>
        <time>2012-02-17T10:46:52Z</time>
      </trkpt>
      <trkpt lat="47.31553" lon="4.93587">
        <ele>421.494</ele>
        <time>2012-02-17T10:47:03Z</time>
      </trkpt>
      <trkpt lat="47.31547" lon="4.93597">
        <ele>422.667</ele>
        <time>2012-02-17T10:47:14Z</time>
      </trkpt>
      <trkpt lat="47.31535" lon="4.93615">
        <ele>423.179</ele>
        <time>2012-02-17T10:47:25Z</time>
      </trkpt>
      <trkpt lat="47.31527" lon="4.93625">
        <ele>423.366</ele>
        <time>2012-02-17T10:47:36Z</time>
      </trkpt>
      <trkpt lat="47.31523" lon="4.9362">
        <ele>412.7</ele>
        <time>2012-02-17T10:47:47Z</time>
      </trkpt>
      <trkpt lat="47.31513" lon="4.9361">
        <ele>425.957</ele>
        <time>2012-02-17T10:47:58Z</time>
      </trkpt>
      <trkpt lat="47.315" lon="4.936">
        <ele>428.001</ele>
        <time>2012-02-17T10:48:09Z</time>
      </trkpt>
      <trkpt lat="47.31493" lon="4.93595">
        <ele>427.979</ele>
        <time>2012-02-17T10:48:20Z</time>
      </trkpt>
      <trkpt lat="47.31493" lon="4.93597">
        <ele>428.096</ele>
        <time>2012-02-17T10:48:31Z</time>
      </trkpt>
      <trkpt lat="47.31492" lon="4.93597">
        <ele>428.02</ele>
        <time>2012-02-17T10:48:42Z</time>
      </trkpt>
      <trkpt lat="47.31492" lon="4.93597">
        <ele>428.02</ele>
        <time>2012-02-17T10:48:53Z</time>
      </trkpt>
      <trkpt lat="47.31492" lon="4.93597">
        <ele>428.02</ele>
        <time>2012-02-17T10:49:04Z</time>
      </trkpt>
      <trkpt lat="47.31492" lon="4.93597">
        <ele>411.9</ele>
        <time>2012-02-17T10:49:15Z</time>
      </trkpt>
      <trkpt lat="47.31497" lon="4.93593">
        <ele>427.969</ele>
        <time>2012-02-17T10:49:26Z</time>
      </trkpt>
      <trkpt lat="47.31503" lon="4.93585">
        <ele>427.112</ele>
        <time>2012-02-17T10:49:37Z</time>
      </trkpt>
      <trkpt lat="47.31507" lon="4.93578">
        <ele>424.849</ele>
        <time>2012-02-17T10:49:48Z</time>
      </trkpt>
      <trkpt lat="47.31508" lon="4.93573">
        <ele>423.559</ele>
        <time>2012-02-17T10:49:59Z</time>
      </trkpt>
      <trkpt lat="47.31508" lon="4.93572">
        <ele>423.593</ele>
        <time>2012-02-17T10:50:10Z</time>
      </trkpt>
      <trkpt lat="47.31508" lon="4.9357">
        <ele>422.718</ele>
        <time>2012-02-17T10:50:21Z</time>
      </trkpt>
      <trkpt lat="47.31508" lon="4.93568">
        <ele>422.605</ele>
        <time>2012-02-17T10:50:32Z</time>
      </trkpt>
      <trkpt lat="47.3151" lon="4.93567">
        <ele>421.708</ele>
        <time>2012-02-17T10:50:43Z</time>
      </trkpt>
      <trkpt lat="47.31515" lon="4.93552">
        <ele>404.8</ele>
        <time>2012-02-17T10:50:54Z</time>
      </trkpt>
      <trkpt lat="47.3152" lon="4.93522">
        <ele>419.298</ele>
        <time>2012-02-17T10:51:05Z</time>
      </trkpt>
      <trkpt lat="47.31515" lon="4.93498">
        <ele>416.15</ele>
        <time>2012-02-17T10:51:16Z</time>
      </trkpt>
      <trkpt lat="47.31518" lon="4.93478">
        <ele>414.922</ele>
        <time>2012-02-17T10:51:27Z</time>
      </trkpt>
      <trkpt lat="47.31517" lon="4.93468">
        <ele>414.615</ele>
        <time>2012-02-17T10:51:38Z</time>
      </trkpt>
      <trkpt lat="47.31507" lon="4.93447">
        <ele>413.192</ele>
        <time>2012-02-17T10:51:49Z</time>
      </trkpt>
      <trkpt lat="47.31503" lon="4.93423">
        <ele>410.563</ele>
        <time>2012-02-17T10:52:00Z</time>
      </trkpt>
      <trkpt lat="47.31502" lon="4.93413">
        <ele>410.128</ele>
        <time>2012-02-17T10:52:11Z</time>
      </trkpt>
      <trkpt lat="47.315" lon="4.93397">
        <ele>409.192</ele>
        <time>2012-02-17T10:52:22Z</time>
      </trkpt>
      <trkpt lat="47.31498" lon="4.93373">
        <ele>407.254</ele>
        <time>2012-02-17T10:52:33Z</time>
      </trkpt>
      <trkpt lat="47.31495" lon="4.93363">
        <ele>405.483</ele>
        <time>2012-02-17T10:52:44Z</time>
      </trkpt>
      <trkpt lat="47.31493" lon="4.93358">
        <ele>404.849</ele>
        <time>2012-02-17T10:52:55Z</time>
      </trkpt>
      <trkpt lat="47.31488" lon="4.93355">
        <ele>402.243</ele>
        <time>2012-02-17T10:53:06Z</time>
      </trkpt>
      <trkpt lat="47.31483" lon="4.93347">
        <ele>401.188</ele>
        <time>2012-02-17T10:53:17Z</time>
      </trkpt>
      <trkpt lat="47.31475" lon="4.93333">
        <ele>397.893</ele>
        <time>2012-02-17T10:53:28Z</time>
      </trkpt>
      <trkpt lat="47.31472" lon="4.9332">
        <ele>394.512</ele>
        <time>2012-02-17T10:53:39Z</time>
      </trkpt>
      <trkpt lat="47.31468" lon="4.933">
        <ele>391.196</ele>
        <time>2012-02-17T10:53:50Z</time>
      </trkpt>
      <trkpt lat="47.31467" lon="4.93288">
        <ele>391.952</ele>
        <time>2012-02-17T10:54:01Z</time>
      </trkpt>
      <trkpt lat="47.31457" lon="4.93265">
        <ele>392.737</ele>
        <time>2012-02-17T10:54:12Z</time>
      </trkpt>
      <trkpt lat="47.31457" lon="4.93253">
        <ele>392.328</ele>
        <time>2012-02-17T10:54:23Z</time>
      </trkpt>
      <trkpt lat="47.31457" lon="4.93233">
        <ele>391.663</ele>
        <time>2012-02-17T10:54:34Z</time>
      </trkpt>
      <trkpt lat="47.31458" lon="4.93213">
        <ele>389.559</ele>
        <time>2012-02-17T10:54:45Z</time>
      </trkpt>
      <trkpt lat="47.31462" lon="4.93203">
        <ele>388.587</ele>
        <time>2012-02-17T10:54:56Z</time>
      </trkpt>
      <trkpt lat="47.31465" lon="4.93188">
        <ele>388.722</ele>
        <time>2012-02-17T10:55:07Z</time>
      </trkpt>
      <trkpt lat="47.3147" lon="4.93162">
        <ele>388.764</ele>
        <time>2012-02-17T10:55:18Z</time>
      </trkpt>
      <trkpt lat="47.31473" lon="4.93128">
        <ele>389.246</ele>
        <time>2012-02-17T10:55:29Z</time>
      </trkpt>
      <trkpt lat="47.31477" lon="4.93102">
        <ele>390.791</ele>
        <time>2012-02-17T10:55:40Z</time>
      </trkpt>
      <trkpt lat="47.3148" lon="4.93075">
        <ele>390.172</ele>
        <time>2012-02-17T10:55:51Z</time>
      </trkpt>
      <trkpt lat="47.31483" lon="4.93048">
        <ele>386.732</ele>
        <time>2012-02-17T10:56:02Z</time>
      </trkpt>
      <trkpt lat="47.31485" lon="4.93023">
        <ele>383.949</ele>
        <time>2012-02-17T10:56:13Z</time>
      </trkpt>
      <trkpt lat="47.31495" lon="4.92998">
        <ele>384.879</ele>
        <time>2012-02-17T10:56:24Z</time>
      </trkpt>
      <trkpt lat="47.31507" lon="4.92982">
        <ele>381.91</ele>
        <time>2012-02-17T10:56:35Z</time>
      </trkpt>
      <trkpt lat="47.31517" lon="4.92968">
        <ele>379.491</ele>
        <time>2012-02-17T10:56:46Z</time>
      </trkpt>
      <trkpt lat="47.31523" lon="4.92952">
        <ele>378.145</ele>
        <time>2012-02-17T10:56:57Z</time>
      </trkpt>
      <trkpt lat="47.31533" lon="4.92935">
        <ele>379.004</ele>
        <time>2012-02-17T10:57:08Z</time>
      </trkpt>
      <trkpt lat="47.31538" lon="4.92913">
        <ele>377.278</ele>
        <time>2012-02-17T10:57:19Z</time>
      </trkpt>
      <trkpt lat="47.31553" lon="4.92892">
        <ele>375.793</ele>
        <time>2012-02-17T10:57:30Z</time>
      </trkpt>
      <trkpt lat="47.31567" lon="4.92863">
        <ele>373.268</ele>
        <time>2012-02-17T10:57:41Z</time>
      </trkpt>
      <trkpt lat="47.31573" lon="4.92837">
        <ele>321.3</ele>
        <time>2012-02-17T10:57:52Z</time>
      </trkpt>
      <trkpt lat="47.31583" lon="4.92828">
        <ele>364.588</ele>
        <time>2012-02-17T10:58:03Z</time>
      </trkpt>
      <trkpt lat="47.31592" lon="4.92813">
        <ele>363.392</ele>
        <time>2012-02-17T10:58:14Z</time>
      </trkpt>
      <trkpt lat="47.31603" lon="4.92795">
        <ele>360.324</ele>
        <time>2012-02-17T10:58:25Z</time>
      </trkpt>
      <trkpt lat="47.31615" lon="4.92777">
        <ele>358.011</ele>
        <time>2012-02-17T10:58:36Z</time>
      </trkpt>
      <trkpt lat="47.31622" lon="4.92762">
        <ele>350.258</ele>
        <time>2012-02-17T10:58:47Z</time>
      </trkpt>
      <trkpt lat="47.31637" lon="4.92738">
        <ele>345.988</ele>
        <time>2012-02-17T10:58:58Z</time>
      </trkpt>
      <trkpt lat="47.31647" lon="4.9273">
        <ele>343.318</ele>
        <time>2012-02-17T10:59:09Z</time>
      </trkpt>
      <trkpt lat="47.31665" lon="4.9273">
        <ele>334.077</ele>
        <time>2012-02-17T10:59:20Z</time>
      </trkpt>
      <trkpt lat="47.31675" lon="4.92727">
        <ele>329.196</ele>
        <time>2012-02-17T10:59:31Z</time>
      </trkpt>
      <trkpt lat="47.31693" lon="4.92723">
        <ele>327.232</ele>
        <time>2012-02-17T10:59:42Z</time>
      </trkpt>
      <trkpt lat="47.31708" lon="4.92722">
        <ele>324.307</ele>
        <time>2012-02-17T10:59:53Z</time>
      </trkpt>
      <trkpt lat="47.31722" lon="4.9272">
        <ele>321.714</ele>
        <time>2012-02-17T11:00:04Z</time>
      </trkpt>
      <trkpt lat="47.31738" lon="4.92715">
        <ele>321.004</ele>
        <time>2012-02-17T11:00:15Z</time>
      </trkpt>
      <trkpt lat="47.3175" lon="4.92708">
        <ele>318.927</ele>
        <time>2012-02-17T11:00:26Z</time>
      </trkpt>
      <trkpt lat="47.31765" lon="4.92698">
        <ele>274.7</ele>
        <time>2012-02-17T11:00:37Z</time>
      </trkpt>
      <trkpt lat="47.31778" lon="4.92693">
        <ele>311.389</ele>
        <time>2012-02-17T11:00:48Z</time>
      </trkpt>
      <trkpt lat="47.31797" lon="4.9269">
        <ele>307.329</ele>
        <time>2012-02-17T11:00:59Z</time>
      </trkpt>
      <trkpt lat="47.3181" lon="4.9268">
        <ele>301.863</ele>
        <time>2012-02-17T11:01:10Z</time>
      </trkpt>
      <trkpt lat="47.31822" lon="4.92678">
        <ele>299.413</ele>
        <time>2012-02-17T11:01:21Z</time>
      </trkpt>
      <trkpt lat="47.31835" lon="4.92675">
        <ele>295.888</ele>
        <time>2012-02-17T11:01:32Z</time>
      </trkpt>
      <trkpt lat="47.31837" lon="4.92673">
        <ele>293.334</ele>
        <time>2012-02-17T11:01:43Z</time>
      </trkpt>
      <trkpt lat="47.31845" lon="4.92657">
        <ele>291.749</ele>
        <time>2012-02-17T11:01:54Z</time>
      </trkpt>
      <trkpt lat="47.31848" lon="4.92638">
        <ele>266.8</ele>
        <time>2012-02-17T11:02:05Z</time>
      </trkpt>
      <trkpt lat="47.31852" lon="4.92613">
        <ele>285.847</ele>
        <time>2012-02-17T11:02:16Z</time>
      </trkpt>
      <trkpt lat="47.31853" lon="4.92588">
        <ele>284.592</ele>
        <time>2012-02-17T11:02:27Z</time>
      </trkpt>
      <trkpt lat="47.31853" lon="4.9257">
        <ele>283.825</ele>
        <time>2012-02-17T11:02:38Z</time>
      </trkpt>
      <trkpt lat="47.31855" lon="4.92545">
        <ele>284.434</ele>
        <time>2012-02-17T11:02:49Z</time>
      </trkpt>
      <trkpt lat="47.31857" lon="4.92523">
        <ele>284.99</ele>
        <time>2012-02-17T11:03:00Z</time>
      </trkpt>
      <trkpt lat="47.31857" lon="4.92497">
        <ele>283.438</ele>
        <time>2012-02-17T11:03:11Z</time>
      </trkpt>
      <trkpt lat="47.31858" lon="4.92472">
        <ele>282.614</ele>
        <time>2012-02-17T11:03:22Z</time>
      </trkpt>
      <trkpt lat="47.31858" lon="4.92447">
        <ele>282.198</ele>
        <time>2012-02-17T11:03:33Z</time>
      </trkpt>
      <trkpt lat="47.3186" lon="4.92422">
        <ele>282.232</ele>
        <time>2012-02-17T11:03:44Z</time>
      </trkpt>
      <trkpt lat="47.31858" lon="4.92402">
        <ele>281.438</ele>
        <time>2012-02-17T11:03:55Z</time>
      </trkpt>
      <trkpt lat="47.31858" lon="4.9238">
        <ele>281.172</ele>
        <time>2012-02-17T11:04:06Z</time>
      </trkpt>
      <trkpt lat="47.31858" lon="4.92357">
        <ele>281.26</ele>
        <time>2012-02-17T11:04:17Z</time>
      </trkpt>
      <trkpt lat="47.31857" lon="4.92332">
        <ele>281.491</ele>
        <time>2012-02-17T11:04:28Z</time>
      </trkpt>
      <trkpt lat="47.31855" lon="4.9231">
        <ele>281.519</ele>
        <time>2012-02-17T11:04:39Z</time>
      </trkpt>
      <trkpt lat="47.31852" lon="4.92285">
        <ele>281.258</ele>
        <time>2012-02-17T11:04:50Z</time>
      </trkpt>
      <trkpt lat="47.3185" lon="4.92262">
        <ele>280.981</ele>
        <time>2012-02-17T11:05:01Z</time>
      </trkpt>
      <trkpt lat="47.31847" lon="4.9224">
        <ele>281.312</ele>
        <time>2012-02-17T11:05:12Z</time>
      </trkpt>
      <trkpt lat="47.31845" lon="4.92215">
        <ele>281.29</ele>
        <time>2012-02-17T11:05:23Z</time>
      </trkpt>
      <trkpt lat="47.31842" lon="4.92193">
        <ele>281.613</ele>
        <time>2012-02-17T11:05:34Z</time>
      </trkpt>
      <trkpt lat="47.3184" lon="4.92168">
        <ele>283.07</ele>
        <time>2012-02-17T11:05:45Z</time>
      </trkpt>
      <trkpt lat="47.31837" lon="4.92145">
        <ele>283.208</ele>
        <time>2012-02-17T11:05:56Z</time>
      </trkpt>
      <trkpt lat="47.31833" lon="4.92122">
        <ele>283.338</ele>
        <time>2012-02-17T11:06:07Z</time>
      </trkpt>
      <trkpt lat="47.3183" lon="4.921">
        <ele>284.356</ele>
        <time>2012-02-17T11:06:18Z</time>
      </trkpt>
      <trkpt lat="47.3183" lon="4.92075">
        <ele>284.593</ele>
        <time>2012-02-17T11:06:29Z</time>
      </trkpt>
      <trkpt lat="47.31827" lon="4.92057">
        <ele>284.967</ele>
        <time>2012-02-17T11:06:40Z</time>
      </trkpt>
      <trkpt lat="47.31825" lon="4.92035">
        <ele>285.276</ele>
        <time>2012-02-17T11:06:51Z</time>
      </trkpt>
      <trkpt lat="47.31823" lon="4.9201">
        <ele>286.823</ele>
        <time>2012-02-17T11:07:02Z</time>
      </trkpt>
      <trkpt lat="47.31822" lon="4.91988">
        <ele>287.383</ele>
        <time>2012-02-17T11:07:13Z</time>
      </trkpt>
      <trkpt lat="47.31818" lon="4.91962">
        <ele>287.89</ele>
        <time>2012-02-17T11:07:24Z</time>
      </trkpt>
      <trkpt lat="47.31817" lon="4.91937">
        <ele>288.864</ele>
        <time>2012-02-17T11:07:35Z</time>
      </trkpt>
      <trkpt lat="47.31815" lon="4.9191">
        <ele>287.574</ele>
        <time>2012-02-17T11:07:46Z</time>
      </trkpt>
      <trkpt lat="47.31812" lon="4.91885">
        <ele>288.756</ele>
        <time>2012-02-17T11:07:57Z</time>
      </trkpt>
      <trkpt lat="47.31808" lon="4.9186">
        <ele>288.388</ele>
        <time>2012-02-17T11:08:08Z</time>
      </trkpt>
      <trkpt lat="47.31803" lon="4.91833">
        <ele>287.732</ele>
        <time>2012-02-17T11:08:19Z</time>
      </trkpt>
      <trkpt lat="47.31802" lon="4.91808">
        <ele>285.808</ele>
        <time>2012-02-17T11:08:30Z</time>
      </trkpt>
      <trkpt lat="47.31798" lon="4.91787">
        <ele>284.788</ele>
        <time>2012-02-17T11:08:41Z</time>
      </trkpt>
      <trkpt lat="47.31795" lon="4.91765">
        <ele>283.861</ele>
        <time>2012-02-17T11:08:52Z</time>
      </trkpt>
      <trkpt lat="47.31793" lon="4.91742">
        <ele>284.138</ele>
        <time>2012-02-17T11:09:03Z</time>
      </trkpt>
      <trkpt lat="47.31792" lon="4.91718">
        <ele>283.739</ele>
        <time>2012-02-17T11:09:14Z</time>
      </trkpt>
      <trkpt lat="47.31788" lon="4.91695">
        <ele>281.719</ele>
        <time>2012-02-17T11:09:25Z</time>
      </trkpt>
      <trkpt lat="47.31787" lon="4.9167">
        <ele>280.537</ele>
        <time>2012-02-17T11:09:36Z</time>
      </trkpt>
      <trkpt lat="47.31785" lon="4.91645">
        <ele>279.708</ele>
        <time>2012-02-17T11:09:47Z</time>
      </trkpt>
      <trkpt lat="47.31782" lon="4.9162">
        <ele>278.823</ele>
        <time>2012-02-17T11:09:58Z</time>
      </trkpt>
      <trkpt lat="47.3178" lon="4.91597">
        <ele>278.629</ele>
        <time>2012-02-17T11:10:09Z</time>
      </trkpt>
      <trkpt lat="47.31775" lon="4.91575">
        <ele>277.492</ele>
        <time>2012-02-17T11:10:20Z</time>
      </trkpt>
      <trkpt lat="47.31773" lon="4.91557">
        <ele>276.633</ele>
        <time>2012-02-17T11:10:31Z</time>
      </trkpt>
      <trkpt lat="47.31772" lon="4.91532">
        <ele>276.08</ele>
        <time>2012-02-17T11:10:42Z</time>
      </trkpt>
      <trkpt lat="47.31767" lon="4.91508">
        <ele>275.995</ele>
        <time>2012-02-17T11:10:53Z</time>
      </trkpt>
      <trkpt lat="47.31765" lon="4.91482">
        <ele>274.705</ele>
        <time>2012-02-17T11:11:04Z</time>
      </trkpt>
      <trkpt lat="47.3176" lon="4.91457">
        <ele>274.556</ele>
        <time>2012-02-17T11:11:15Z</time>
      </trkpt>
      <trkpt lat="47.31757" lon="4.91435">
        <ele>273.851</ele>
        <time>2012-02-17T11:11:26Z</time>
      </trkpt>
      <trkpt lat="47.31753" lon="4.91415">
        <ele>273.125</ele>
        <time>2012-02-17T11:11:37Z</time>
      </trkpt>
      <trkpt lat="47.3175" lon="4.91395">
        <ele>272.879</ele>
        <time>2012-02-17T11:11:48Z</time>
      </trkpt>
      <trkpt lat="47.3175" lon="4.91375">
        <ele>273.062</ele>
        <time>2012-02-17T11:11:59Z</time>
      </trkpt>
      <trkpt lat="47.31748" lon="4.91353">
        <ele>273.958</ele>
        <time>2012-02-17T11:12:10Z</time>
      </trkpt>
      <trkpt lat="47.31747" lon="4.91332">
        <ele>274.881</ele>
        <time>2012-02-17T11:12:21Z</time>
      </trkpt>
      <trkpt lat="47.31743" lon="4.91307">
        <ele>273.993</ele>
        <time>2012-02-17T11:12:32Z</time>
      </trkpt>
      <trkpt lat="47.31742" lon="4.91282">
        <ele>274.092</ele>
        <time>2012-02-17T11:12:43Z</time>
      </trkpt>
      <trkpt lat="47.31743" lon="4.91262">
        <ele>274.162</ele>
        <time>2012-02-17T11:12:54Z</time>
      </trkpt>
      <trkpt lat="47.31752" lon="4.91242">
        <ele>271.416</ele>
        <time>2012-02-17T11:13:05Z</time>
      </trkpt>
      <trkpt lat="47.31763" lon="4.91222">
        <ele>269.54</ele>
        <time>2012-02-17T11:13:16Z</time>
      </trkpt>
      <trkpt lat="47.31775" lon="4.91202">
        <ele>268.682</ele>
        <time>2012-02-17T11:13:27Z</time>
      </trkpt>
      <trkpt lat="47.31782" lon="4.91178">
        <ele>267.209</ele>
        <time>2012-02-17T11:13:38Z</time>
      </trkpt>
      <trkpt lat="47.31775" lon="4.91157">
        <ele>266.694</ele>
        <time>2012-02-17T11:13:49Z</time>
      </trkpt>
      <trkpt lat="47.31768" lon="4.91135">
        <ele>266.455</ele>
        <time>2012-02-17T11:14:00Z</time>
      </trkpt>
      <trkpt lat="47.31762" lon="4.91117">
        <ele>267.42</ele>
        <time>2012-02-17T11:14:11Z</time>
      </trkpt>
      <trkpt lat="47.31758" lon="4.91102">
        <ele>267.775</ele>
        <time>2012-02-17T11:14:22Z</time>
      </trkpt>
      <trkpt lat="47.31762" lon="4.911">
        <ele>267.493</ele>
        <time>2012-02-17T11:14:33Z</time>
      </trkpt>
      <trkpt lat="47.31778" lon="4.91098">
        <ele>267.75</ele>
        <time>2012-02-17T11:14:44Z</time>
      </trkpt>
      <trkpt lat="47.31788" lon="4.91075">
        <ele>269.764</ele>
        <time>2012-02-17T11:14:55Z</time>
      </trkpt>
      <trkpt lat="47.31798" lon="4.91068">
        <ele>269.637</ele>
        <time>2012-02-17T11:15:06Z</time>
      </trkpt>
      <trkpt lat="47.31807" lon="4.91075">
        <ele>270.317</ele>
        <time>2012-02-17T11:15:17Z</time>
      </trkpt>
      <trkpt lat="47.3182" lon="4.91075">
        <ele>269.646</ele>
        <time>2012-02-17T11:15:28Z</time>
      </trkpt>
      <trkpt lat="47.3183" lon="4.91067">
        <ele>269.534</ele>
        <time>2012-02-17T11:15:39Z</time>
      </trkpt>
      <trkpt lat="47.31838" lon="4.9105">
        <ele>268.477</ele>
        <time>2012-02-17T11:15:50Z</time>
      </trkpt>
      <trkpt lat="47.31843" lon="4.91027">
        <ele>268.231</ele>
        <time>2012-02-17T11:16:01Z</time>
      </trkpt>
      <trkpt lat="47.31845" lon="4.91003">
        <ele>268.324</ele>
        <time>2012-02-17T11:16:12Z</time>
      </trkpt>
      <trkpt lat="47.31847" lon="4.90978">
        <ele>267.729</ele>
        <time>2012-02-17T11:16:23Z</time>
      </trkpt>
      <trkpt lat="47.31847" lon="4.90953">
        <ele>266.411</ele>
        <time>2012-02-17T11:16:34Z</time>
      </trkpt>
      <trkpt lat="47.3185" lon="4.90932">
        <ele>266.21</ele>
        <time>2012-02-17T11:16:45Z</time>
      </trkpt>
      <trkpt lat="47.31855" lon="4.9091">
        <ele>265.795</ele>
        <time>2012-02-17T11:16:56Z</time>
      </trkpt>
      <trkpt lat="47.31862" lon="4.90888">
        <ele>265.561</ele>
        <time>2012-02-17T11:17:07Z</time>
      </trkpt>
      <trkpt lat="47.31858" lon="4.90873">
        <ele>266.109</ele>
        <time>2012-02-17T11:17:18Z</time>
      </trkpt>
      <trkpt lat="47.31853" lon="4.90855">
        <ele>266.264</ele>
        <time>2012-02-17T11:17:29Z</time>
      </trkpt>
      <trkpt lat="47.31848" lon="4.90842">
        <ele>266.198</ele>
        <time>2012-02-17T11:17:40Z</time>
      </trkpt>
    </trkseg>
  </trk>
</gpx>